Time;durP1;ratioP1;P1;durP2;ratioP2;P2;SDS_P1;SDS_P2;PMS_P1;PMS_P2;Temp;Humidity;BMP_temperature;BMP_pressure;BME280_temperature;BME280_humidity;BME280_pressure;Samples;Min_cycle;Max_cycle;Signal;HPM_P1;HPM_P2
2022/01/29 00:01:03;;;;;;;29.75;10.38;;;;;;;;;;4965381;28;20690;-85
2022/01/29 00:03:30;;;;;;;24.75;7.13;;;;;;;;;;4977203;28;20046;-85
2022/01/29 00:05:58;;;;;;;23.10;8.65;;;;;;;;;;4965293;28;23123;-86
2022/01/29 00:08:24;;;;;;;27.83;9.32;;;;;;;;;;4980642;28;20030;-85
2022/01/29 00:10:55;;;;;;;22.98;8.77;;;;;;;;;;4982120;28;20514;-85
2022/01/29 00:13:21;;;;;;;26.65;8.95;;;;;;;;;;4980376;28;20027;-85
2022/01/29 00:15:47;;;;;;;19.50;6.20;;;;;;;;;;4946804;28;20058;-85
2022/01/29 00:18:13;;;;;;;21.58;9.40;;;;;;;;;;4952919;28;20081;-85
2022/01/29 00:20:39;;;;;;;35.00;7.70;;;;;;;;;;4946743;28;20019;-85
2022/01/29 00:23:05;;;;;;;19.00;6.80;;;;;;;;;;4951411;28;20039;-85
2022/01/29 00:25:31;;;;;;;25.85;7.95;;;;;;;;;;4948569;28;20443;-86
2022/01/29 00:27:59;;;;;;;15.70;5.50;;;;;;;;;;4957035;28;20034;-85
2022/01/29 00:30:31;;;;;;;27.13;9.38;;;;;;;;;;4949650;28;20034;-84
2022/01/29 00:32:57;;;;;;;24.35;6.32;;;;;;;;;;4980164;28;20486;-85
2022/01/29 00:35:23;;;;;;;23.45;6.57;;;;;;;;;;4960873;28;20049;-86
2022/01/29 00:37:49;;;;;;;23.60;7.85;;;;;;;;;;4950295;28;20019;-85
2022/01/29 00:40:15;;;;;;;16.67;4.63;;;;;;;;;;4951230;28;20497;-85
2022/01/29 00:42:42;;;;;;;26.63;7.55;;;;;;;;;;4955573;28;20471;-85
2022/01/29 00:45:14;;;;;;;22.30;9.18;;;;;;;;;;4985289;28;20038;-84
2022/01/29 00:47:47;;;;;;;29.02;9.27;;;;;;;;;;4945538;28;20360;-85
2022/01/29 00:50:13;;;;;;;18.98;5.57;;;;;;;;;;4979896;28;20027;-84
2022/01/29 00:52:39;;;;;;;19.13;8.00;;;;;;;;;;4950195;28;20756;-85
2022/01/29 00:55:06;;;;;;;15.02;5.75;;;;;;;;;;4955943;28;20031;-85
2022/01/29 00:57:33;;;;;;;13.18;7.00;;;;;;;;;;4938608;28;20038;-85
2022/01/29 00:59:59;;;;;;;16.70;7.22;;;;;;;;;;4949949;28;20031;-85
2022/01/29 01:02:25;;;;;;;37.30;10.38;;;;;;;;;;4947562;28;20172;-81
2022/01/29 01:04:52;;;;;;;19.75;5.38;;;;;;;;;;4944322;28;20098;-81
2022/01/29 01:07:18;;;;;;;17.85;6.90;;;;;;;;;;4949823;28;20394;-81
2022/01/29 01:09:44;;;;;;;18.00;6.03;;;;;;;;;;4945697;28;20082;-81
2022/01/29 01:12:10;;;;;;;43.47;9.70;;;;;;;;;;4947876;28;20026;-80
2022/01/29 01:14:36;;;;;;;23.73;8.07;;;;;;;;;;4960945;28;20038;-81
2022/01/29 01:17:03;;;;;;;23.48;7.97;;;;;;;;;;4948409;28;20027;-80
2022/01/29 01:19:29;;;;;;;20.02;7.05;;;;;;;;;;4938685;28;20033;-81
2022/01/29 01:21:56;;;;;;;18.75;7.00;;;;;;;;;;4948393;28;20027;-80
2022/01/29 01:24:23;;;;;;;28.55;9.65;;;;;;;;;;4975476;28;20022;-80
2022/01/29 01:26:49;;;;;;;20.90;7.82;;;;;;;;;;4941294;28;20034;-81
2022/01/29 01:29:16;;;;;;;16.40;5.95;;;;;;;;;;4964619;28;20509;-80
2022/01/29 01:31:44;;;;;;;35.22;9.70;;;;;;;;;;4944904;28;20116;-81
2022/01/29 01:34:11;;;;;;;28.92;10.15;;;;;;;;;;4961289;28;20088;-81
2022/01/29 01:36:44;;;;;;;22.80;8.73;;;;;;;;;;4943661;28;20454;-81
2022/01/29 01:39:13;;;;;;;26.92;7.95;;;;;;;;;;4944521;28;20027;-80
2022/01/29 01:41:42;;;;;;;32.00;7.53;;;;;;;;;;4941974;28;20110;-82
2022/01/29 01:44:15;;;;;;;22.40;7.00;;;;;;;;;;4947504;28;20023;-81
2022/01/29 01:46:47;;;;;;;26.10;8.07;;;;;;;;;;4965150;28;20404;-82
2022/01/29 01:49:15;;;;;;;33.33;8.60;;;;;;;;;;4951322;28;20023;-81
2022/01/29 01:51:42;;;;;;;27.88;7.50;;;;;;;;;;4960595;28;20062;-81
2022/01/29 01:54:08;;;;;;;17.73;7.20;;;;;;;;;;4949143;28;20027;-82
2022/01/29 01:56:34;;;;;;;34.22;11.20;;;;;;;;;;4952994;28;20030;-81
2022/01/29 01:59:00;;;;;;;20.35;7.68;;;;;;;;;;4965939;28;20034;-81
2022/01/29 02:01:26;;;;;;;35.47;7.88;;;;;;;;;;4953856;28;20070;-81
2022/01/29 02:03:52;;;;;;;37.45;11.10;;;;;;;;;;4964094;28;20038;-81
2022/01/29 02:06:19;;;;;;;32.55;9.75;;;;;;;;;;4950105;28;20033;-82
2022/01/29 02:08:45;;;;;;;23.92;8.65;;;;;;;;;;4942469;28;20034;-81
2022/01/29 02:11:11;;;;;;;44.33;12.50;;;;;;;;;;4948539;28;20482;-82
2022/01/29 02:13:37;;;;;;;25.65;8.10;;;;;;;;;;4981102;28;20035;-81
2022/01/29 02:16:05;;;;;;;18.40;6.35;;;;;;;;;;4966919;28;20363;-81
2022/01/29 02:18:31;;;;;;;24.63;9.30;;;;;;;;;;4979832;28;20074;-82
2022/01/29 02:20:59;;;;;;;25.38;8.10;;;;;;;;;;4966431;28;20035;-81
2022/01/29 02:23:25;;;;;;;19.02;9.10;;;;;;;;;;4977791;28;20045;-82
2022/01/29 02:25:51;;;;;;;37.03;10.85;;;;;;;;;;4977139;28;20121;-81
2022/01/29 02:28:21;;;;;;;26.48;9.65;;;;;;;;;;4981297;28;20126;-82
2022/01/29 02:30:48;;;;;;;20.27;5.68;;;;;;;;;;4962503;28;20121;-81
2022/01/29 02:33:16;;;;;;;29.52;6.75;;;;;;;;;;4958879;28;20075;-81
2022/01/29 02:35:49;;;;;;;35.50;8.45;;;;;;;;;;4961808;28;20116;-82
2022/01/29 02:38:17;;;;;;;11.45;4.82;;;;;;;;;;4963123;28;20027;-81
2022/01/29 02:40:49;;;;;;;37.63;9.48;;;;;;;;;;4948425;28;20035;-81
2022/01/29 02:43:17;;;;;;;23.63;9.30;;;;;;;;;;4978322;28;20497;-81
2022/01/29 02:45:43;;;;;;;30.35;6.32;;;;;;;;;;4981887;28;20102;-81
2022/01/29 02:48:10;;;;;;;20.55;7.95;;;;;;;;;;4949973;28;20054;-81
2022/01/29 02:50:36;;;;;;;26.02;7.47;;;;;;;;;;4948652;28;20039;-82
2022/01/29 02:53:02;;;;;;;23.80;6.47;;;;;;;;;;4946971;28;20043;-80
2022/01/29 02:55:29;;;;;;;15.23;6.35;;;;;;;;;;4952573;28;20094;-81
2022/01/29 02:57:55;;;;;;;26.73;9.10;;;;;;;;;;4949813;28;20125;-82
2022/01/29 03:00:21;;;;;;;31.80;7.35;;;;;;;;;;4964428;28;20034;-81
2022/01/29 03:02:47;;;;;;;24.15;6.43;;;;;;;;;;4951772;28;20043;-81
2022/01/29 03:05:14;;;;;;;28.98;8.75;;;;;;;;;;4961954;28;20105;-81
2022/01/29 03:07:40;;;;;;;31.55;8.80;;;;;;;;;;4950575;28;20125;-82
2022/01/29 03:10:07;;;;;;;34.47;9.60;;;;;;;;;;4961807;28;20114;-82
2022/01/29 03:12:33;;;;;;;26.92;9.65;;;;;;;;;;4952970;28;20042;-82
2022/01/29 03:14:59;;;;;;;31.92;6.78;;;;;;;;;;4947855;28;20463;-81
2022/01/29 03:17:25;;;;;;;24.05;7.47;;;;;;;;;;4962447;28;20027;-81
2022/01/29 03:19:53;;;;;;;27.73;9.05;;;;;;;;;;4961262;28;20042;-80
2022/01/29 03:22:19;;;;;;;26.88;7.22;;;;;;;;;;4964671;28;20022;-80
2022/01/29 03:24:46;;;;;;;28.27;9.15;;;;;;;;;;4963032;28;20058;-81
2022/01/29 03:27:12;;;;;;;19.23;7.03;;;;;;;;;;4947013;28;20066;-81
2022/01/29 03:29:38;;;;;;;28.35;9.40;;;;;;;;;;4949713;28;20045;-81
2022/01/29 03:32:04;;;;;;;24.33;5.65;;;;;;;;;;4962526;28;20479;-81
2022/01/29 03:34:30;;;;;;;28.40;6.95;;;;;;;;;;4978883;28;20067;-82
2022/01/29 03:36:57;;;;;;;15.15;5.85;;;;;;;;;;4944848;28;20027;-82
2022/01/29 03:39:25;;;;;;;22.80;8.50;;;;;;;;;;4948612;28;20035;-81
2022/01/29 03:41:51;;;;;;;22.48;6.80;;;;;;;;;;4939145;28;20027;-81
2022/01/29 03:44:17;;;;;;;14.55;6.93;;;;;;;;;;4947584;28;20035;-82
2022/01/29 03:46:44;;;;;;;18.60;7.47;;;;;;;;;;4952339;28;20134;-81
2022/01/29 03:49:10;;;;;;;21.90;6.18;;;;;;;;;;4961396;28;20042;-82
2022/01/29 03:51:36;;;;;;;16.70;5.85;;;;;;;;;;4963357;28;20130;-83
2022/01/29 03:54:02;;;;;;;17.90;6.00;;;;;;;;;;4946939;28;20035;-81
2022/01/29 03:56:28;;;;;;;24.23;8.27;;;;;;;;;;4948187;28;20490;-81
2022/01/29 03:58:54;;;;;;;33.47;9.77;;;;;;;;;;4976949;28;20470;-81
2022/01/29 04:01:20;;;;;;;26.80;9.32;;;;;;;;;;4948556;28;20046;-82
2022/01/29 04:03:46;;;;;;;18.02;7.30;;;;;;;;;;4943632;28;20620;-81
2022/01/29 04:06:12;;;;;;;22.17;7.22;;;;;;;;;;4945611;28;20031;-81
2022/01/29 04:08:42;;;;;;;37.22;10.57;;;;;;;;;;4947433;28;20046;-81
2022/01/29 04:11:11;;;;;;;21.25;9.02;;;;;;;;;;4945070;28;20033;-81
2022/01/29 04:13:38;;;;;;;25.90;9.38;;;;;;;;;;4964321;28;20023;-82
2022/01/29 04:16:04;;;;;;;25.17;7.60;;;;;;;;;;4963738;28;20433;-81
2022/01/29 04:18:30;;;;;;;22.85;8.10;;;;;;;;;;4948032;28;20035;-82
2022/01/29 04:20:56;;;;;;;24.45;7.22;;;;;;;;;;4946945;28;20474;-81
2022/01/29 04:23:22;;;;;;;25.88;8.40;;;;;;;;;;4953228;28;20046;-81
2022/01/29 04:25:52;;;;;;;20.50;7.78;;;;;;;;;;4944763;28;20038;-81
2022/01/29 04:28:18;;;;;;;28.23;7.80;;;;;;;;;;4948317;28;20109;-81
2022/01/29 04:30:48;;;;;;;33.72;10.90;;;;;;;;;;4947515;28;20039;-80
2022/01/29 04:35:41;;;;;;;20.52;8.30;;;;;;;;;;4962059;28;20031;-82
2022/01/29 04:38:07;;;;;;;25.70;7.38;;;;;;;;;;4959635;28;20038;-81
2022/01/29 04:40:35;;;;;;;35.33;8.07;;;;;;;;;;4947771;28;20456;-82
2022/01/29 04:43:01;;;;;;;16.08;7.20;;;;;;;;;;4961380;28;20029;-81
2022/01/29 04:45:27;;;;;;;25.88;10.13;;;;;;;;;;4951247;28;20511;-82
2022/01/29 04:47:53;;;;;;;25.73;9.75;;;;;;;;;;4981434;28;20030;-81
2022/01/29 04:50:19;;;;;;;23.13;7.47;;;;;;;;;;4969092;28;20418;-81
2022/01/29 04:52:45;;;;;;;20.27;6.90;;;;;;;;;;4995232;28;20482;-81
2022/01/29 04:55:11;;;;;;;13.88;6.05;;;;;;;;;;4962724;28;20041;-81
2022/01/29 04:57:39;;;;;;;18.50;7.13;;;;;;;;;;4967587;28;20038;-82
2022/01/29 05:00:08;;;;;;;17.98;6.72;;;;;;;;;;4964766;28;20029;-82
2022/01/29 05:02:35;;;;;;;22.85;6.20;;;;;;;;;;4996979;28;20126;-82
2022/01/29 05:05:01;;;;;;;28.75;8.73;;;;;;;;;;4962518;28;20085;-81
2022/01/29 05:07:27;;;;;;;21.20;7.53;;;;;;;;;;4998476;28;20030;-81
2022/01/29 05:09:53;;;;;;;20.08;7.57;;;;;;;;;;4963300;28;20097;-81
2022/01/29 05:12:25;;;;;;;18.80;7.57;;;;;;;;;;4969164;28;20715;-81
2022/01/29 05:28:06;;;;;;;19.77;6.68;;;;;;;;;;4980405;28;20081;-81
2022/01/29 05:30:32;;;;;;;30.30;9.90;;;;;;;;;;4969526;28;20042;-81
2022/01/29 05:32:58;;;;;;;17.42;7.88;;;;;;;;;;4981452;28;20241;-82
2022/01/29 05:35:24;;;;;;;24.63;7.60;;;;;;;;;;4961543;28;20470;-81
2022/01/29 05:37:51;;;;;;;22.38;8.82;;;;;;;;;;4970678;28;20034;-82
2022/01/29 05:40:17;;;;;;;16.08;7.18;;;;;;;;;;4965295;28;20026;-81
2022/01/29 05:42:43;;;;;;;15.52;7.13;;;;;;;;;;4966070;28;20515;-81
2022/01/29 05:45:09;;;;;;;24.23;10.70;;;;;;;;;;4956252;28;20687;-81
2022/01/29 05:47:35;;;;;;;28.42;11.32;;;;;;;;;;4969260;28;20496;-81
2022/01/29 05:50:02;;;;;;;15.57;6.00;;;;;;;;;;4959876;28;20038;-81
2022/01/29 05:52:28;;;;;;;12.52;5.93;;;;;;;;;;4964932;28;20038;-83
2022/01/29 05:54:54;;;;;;;18.90;7.82;;;;;;;;;;4995396;28;20040;-81
2022/01/29 05:57:20;;;;;;;22.08;6.55;;;;;;;;;;4962946;28;20115;-81
2022/01/29 05:59:46;;;;;;;32.53;9.45;;;;;;;;;;4964882;28;20034;-82
2022/01/29 06:02:12;;;;;;;13.35;5.78;;;;;;;;;;4962776;28;20652;-81
2022/01/29 06:04:44;;;;;;;20.98;7.60;;;;;;;;;;4966712;28;20066;-81
2022/01/29 06:07:10;;;;;;;17.38;6.20;;;;;;;;;;4979195;28;20069;-81
2022/01/29 06:09:36;;;;;;;22.13;8.80;;;;;;;;;;4965336;28;20073;-81
2022/01/29 06:12:02;;;;;;;22.40;8.90;;;;;;;;;;4966230;28;20371;-81
2022/01/29 06:14:28;;;;;;;20.70;8.85;;;;;;;;;;4964584;28;20034;-81
2022/01/29 06:16:54;;;;;;;21.73;8.48;;;;;;;;;;4958003;28;20382;-81
2022/01/29 06:19:20;;;;;;;20.35;7.15;;;;;;;;;;4961938;28;20505;-82
2022/01/29 06:21:46;;;;;;;22.98;8.60;;;;;;;;;;4984190;28;20030;-82
2022/01/29 06:24:12;;;;;;;21.88;8.57;;;;;;;;;;4960819;28;20033;-81
2022/01/29 06:26:38;;;;;;;26.45;9.68;;;;;;;;;;4964601;28;20088;-81
2022/01/29 06:29:04;;;;;;;16.08;7.22;;;;;;;;;;4962835;28;20037;-81
2022/01/29 06:31:31;;;;;;;21.20;8.18;;;;;;;;;;4996347;28;20038;-82
2022/01/29 06:33:57;;;;;;;20.52;7.10;;;;;;;;;;4996470;28;20030;-82
2022/01/29 06:36:22;;;;;;;14.40;5.22;;;;;;;;;;4969593;28;20045;-81
2022/01/29 06:38:49;;;;;;;26.38;10.35;;;;;;;;;;4983375;28;20899;-81
2022/01/29 06:41:15;;;;;;;17.83;6.95;;;;;;;;;;4966550;28;20266;-81
2022/01/29 06:43:41;;;;;;;14.50;6.63;;;;;;;;;;4998102;28;20473;-81
2022/01/29 06:46:13;;;;;;;18.42;7.28;;;;;;;;;;4960088;28;20723;-82
2022/01/29 06:48:39;;;;;;;23.05;7.15;;;;;;;;;;4966724;28;20040;-83
2022/01/29 06:51:05;;;;;;;21.30;8.43;;;;;;;;;;4962698;28;20510;-81
2022/01/29 06:53:32;;;;;;;20.60;9.32;;;;;;;;;;4960718;28;20105;-81
2022/01/29 06:55:58;;;;;;;15.88;5.82;;;;;;;;;;4958424;28;20548;-82
2022/01/29 06:58:24;;;;;;;18.55;6.85;;;;;;;;;;4959547;28;20487;-81
2022/01/29 07:00:50;;;;;;;25.05;8.10;;;;;;;;;;4961451;28;20027;-81
2022/01/29 07:03:16;;;;;;;22.52;8.98;;;;;;;;;;4970483;28;20612;-82
2022/01/29 07:05:42;;;;;;;19.75;8.07;;;;;;;;;;4960556;28;20027;-82
2022/01/29 07:08:08;;;;;;;18.92;8.02;;;;;;;;;;4968068;28;20339;-81
2022/01/29 07:10:37;;;;;;;14.70;7.40;;;;;;;;;;4966354;28;20034;-80
2022/01/29 07:13:03;;;;;;;14.13;6.00;;;;;;;;;;4978990;28;20478;-81
2022/01/29 07:15:29;;;;;;;16.98;8.15;;;;;;;;;;4966527;28;20034;-81
2022/01/29 07:17:55;;;;;;;22.60;7.63;;;;;;;;;;4963621;28;21061;-82
2022/01/29 07:20:21;;;;;;;23.10;6.07;;;;;;;;;;4967104;28;20034;-81
2022/01/29 07:22:47;;;;;;;16.70;8.18;;;;;;;;;;4966083;28;20031;-81
2022/01/29 07:25:13;;;;;;;19.52;6.22;;;;;;;;;;4969246;28;20498;-81
2022/01/29 07:27:39;;;;;;;20.38;9.70;;;;;;;;;;4943277;28;20083;-81
2022/01/29 07:30:05;;;;;;;18.48;6.60;;;;;;;;;;4964730;28;20030;-82
2022/01/29 07:32:31;;;;;;;15.73;7.40;;;;;;;;;;4965584;28;20478;-81
2022/01/29 07:34:58;;;;;;;22.05;8.38;;;;;;;;;;4976276;28;20037;-81
2022/01/29 07:37:24;;;;;;;24.02;9.63;;;;;;;;;;4950927;28;20026;-83
2022/01/29 07:39:50;;;;;;;20.73;7.47;;;;;;;;;;4945088;28;20561;-82
2022/01/29 07:42:23;;;;;;;11.63;4.65;;;;;;;;;;4965999;28;20102;-82
2022/01/29 07:44:49;;;;;;;18.02;6.55;;;;;;;;;;4963150;28;20031;-81
2022/01/29 07:47:28;;;;;;;13.43;6.57;;;;;;;;;;4968833;28;20047;-81
2022/01/29 07:49:54;;;;;;;21.30;6.95;;;;;;;;;;4960390;28;20034;-81
2022/01/29 07:52:21;;;;;;;25.20;8.70;;;;;;;;;;4962044;28;20062;-82
2022/01/29 07:54:47;;;;;;;20.63;8.30;;;;;;;;;;4948431;28;20035;-81
2022/01/29 07:57:13;;;;;;;12.63;6.93;;;;;;;;;;4945648;28;20554;-82
2022/01/29 07:59:39;;;;;;;22.17;8.63;;;;;;;;;;4976305;28;20126;-81
2022/01/29 08:02:05;;;;;;;10.18;4.47;;;;;;;;;;4962147;28;20059;-81
2022/01/29 08:04:31;;;;;;;12.60;4.43;;;;;;;;;;4947064;28;20094;-80
2022/01/29 08:06:57;;;;;;;8.32;4.28;;;;;;;;;;4945806;28;20030;-81
2022/01/29 08:09:23;;;;;;;13.32;5.07;;;;;;;;;;4964941;28;20054;-80
2022/01/29 08:11:49;;;;;;;14.70;5.32;;;;;;;;;;4958901;28;20061;-81
2022/01/29 08:14:15;;;;;;;21.30;7.20;;;;;;;;;;4943795;28;20102;-83
2022/01/29 08:16:41;;;;;;;9.63;4.25;;;;;;;;;;4947453;28;20038;-81
2022/01/29 08:19:07;;;;;;;27.60;9.27;;;;;;;;;;4961190;28;20027;-81
2022/01/29 08:21:33;;;;;;;22.17;7.00;;;;;;;;;;4949489;28;20035;-81
2022/01/29 08:23:59;;;;;;;19.45;7.47;;;;;;;;;;4960201;28;20086;-81
2022/01/29 08:26:25;;;;;;;8.50;3.83;;;;;;;;;;4947812;28;20067;-82
2022/01/29 08:28:51;;;;;;;12.20;4.80;;;;;;;;;;4942069;28;20053;-81
2022/01/29 08:31:17;;;;;;;10.13;4.53;;;;;;;;;;4964526;28;20158;-81
2022/01/29 08:33:43;;;;;;;15.32;6.38;;;;;;;;;;4962736;28;20457;-82
2022/01/29 08:36:09;;;;;;;18.58;6.78;;;;;;;;;;4961489;28;20034;-81
2022/01/29 08:38:35;;;;;;;10.45;5.20;;;;;;;;;;4944962;28;20097;-81
2022/01/29 08:41:01;;;;;;;10.95;4.25;;;;;;;;;;4946652;28;20046;-82
2022/01/29 08:43:27;;;;;;;7.28;3.55;;;;;;;;;;4943152;28;20039;-81
2022/01/29 08:45:54;;;;;;;14.18;5.10;;;;;;;;;;4949463;28;20043;-81
2022/01/29 08:48:20;;;;;;;12.07;5.43;;;;;;;;;;4937591;28;20485;-83
2022/01/29 08:50:46;;;;;;;13.63;4.32;;;;;;;;;;4958559;28;20094;-82
2022/01/29 08:53:13;;;;;;;12.32;4.55;;;;;;;;;;4960834;28;20560;-82
2022/01/29 08:55:39;;;;;;;15.82;5.22;;;;;;;;;;4958021;28;20030;-82
2022/01/29 08:58:08;;;;;;;19.48;5.53;;;;;;;;;;4963078;28;20193;-81
2022/01/29 09:00:35;;;;;;;10.65;3.67;;;;;;;;;;4943354;28;20472;-81
2022/01/29 09:03:01;;;;;;;7.22;3.78;;;;;;;;;;4943778;28;20655;-82
2022/01/29 09:05:28;;;;;;;6.25;3.45;;;;;;;;;;4962670;28;20027;-82
2022/01/29 09:07:54;;;;;;;5.18;3.10;;;;;;;;;;4945442;28;20565;-82
2022/01/29 09:10:20;;;;;;;7.43;3.33;;;;;;;;;;4940376;28;20550;-81
2022/01/29 09:12:46;;;;;;;10.52;3.30;;;;;;;;;;4947586;28;20038;-81
2022/01/29 09:15:12;;;;;;;7.88;3.03;;;;;;;;;;4936689;28;20069;-81
2022/01/29 09:17:39;;;;;;;17.23;4.15;;;;;;;;;;4946425;28;20039;-82
2022/01/29 09:20:06;;;;;;;12.32;4.18;;;;;;;;;;4937892;28;20105;-82
2022/01/29 09:22:32;;;;;;;4.72;2.72;;;;;;;;;;4948116;28;20038;-82
2022/01/29 09:24:58;;;;;;;5.85;3.65;;;;;;;;;;4956084;28;20073;-81
2022/01/29 09:27:24;;;;;;;7.55;3.67;;;;;;;;;;4958694;28;20394;-81
2022/01/29 09:29:51;;;;;;;10.73;3.22;;;;;;;;;;4973629;28;20046;-82
2022/01/29 09:32:17;;;;;;;5.63;3.22;;;;;;;;;;4938961;28;20023;-82
2022/01/29 09:34:43;;;;;;;8.75;3.33;;;;;;;;;;4956343;28;20053;-82
2022/01/29 09:37:09;;;;;;;6.15;2.67;;;;;;;;;;4942511;28;20073;-82
2022/01/29 09:39:35;;;;;;;4.63;2.30;;;;;;;;;;4944724;28;20063;-82
2022/01/29 09:42:01;;;;;;;7.00;2.95;;;;;;;;;;4940321;28;20510;-81
2022/01/29 09:44:27;;;;;;;10.25;3.25;;;;;;;;;;4944357;28;20054;-81
2022/01/29 09:46:53;;;;;;;4.97;1.92;;;;;;;;;;4941553;28;20136;-82
2022/01/29 09:49:20;;;;;;;7.72;2.17;;;;;;;;;;4943254;28;20030;-81
2022/01/29 09:51:46;;;;;;;6.20;2.15;;;;;;;;;;4938397;28;20082;-81
2022/01/29 09:54:12;;;;;;;7.65;2.90;;;;;;;;;;4944835;28;20129;-81
2022/01/29 09:56:38;;;;;;;8.35;3.10;;;;;;;;;;4938252;28;20764;-81
2022/01/29 09:59:04;;;;;;;8.27;2.92;;;;;;;;;;4946785;28;20023;-81
2022/01/29 10:01:30;;;;;;;12.63;2.63;;;;;;;;;;4942226;28;20549;-82
2022/01/29 10:04:01;;;;;;;9.05;2.72;;;;;;;;;;4940088;28;20435;-82
2022/01/29 10:06:27;;;;;;;5.32;2.25;;;;;;;;;;4948199;28;20045;-81
2022/01/29 10:08:53;;;;;;;10.95;2.65;;;;;;;;;;4940758;28;20038;-81
2022/01/29 10:11:20;;;;;;;5.78;2.72;;;;;;;;;;4950070;28;20054;-82
2022/01/29 10:13:47;;;;;;;8.48;2.20;;;;;;;;;;4942294;28;20499;-83
2022/01/29 10:16:21;;;;;;;6.28;2.50;;;;;;;;;;4961695;28;20041;-82
2022/01/29 10:18:56;;;;;;;6.07;1.55;;;;;;;;;;4959935;28;20026;-81
2022/01/29 10:21:24;;;;;;;4.72;2.13;;;;;;;;;;4945495;28;20035;-83
2022/01/29 10:24:00;;;;;;;4.57;1.67;;;;;;;;;;4965161;28;20043;-82
2022/01/29 10:26:31;;;;;;;12.73;2.80;;;;;;;;;;4980844;28;20027;-81
2022/01/29 10:28:57;;;;;;;3.92;1.70;;;;;;;;;;4942701;28;20046;-82
2022/01/29 10:31:23;;;;;;;11.40;3.53;;;;;;;;;;4964708;28;20106;-82
2022/01/29 10:33:49;;;;;;;9.48;2.63;;;;;;;;;;4941940;28;20035;-81
2022/01/29 10:36:21;;;;;;;9.13;2.10;;;;;;;;;;4943146;28;20035;-81
2022/01/29 10:38:47;;;;;;;8.85;1.67;;;;;;;;;;4948876;28;20030;-82
2022/01/29 10:41:22;;;;;;;8.05;2.28;;;;;;;;;;4940409;28;20043;-82
2022/01/29 10:43:55;;;;;;;11.17;1.90;;;;;;;;;;4961809;28;20433;-81
2022/01/29 10:46:28;;;;;;;4.85;1.48;;;;;;;;;;4949382;28;20783;-82
2022/01/29 10:48:54;;;;;;;4.18;1.42;;;;;;;;;;4946470;28;20066;-82
2022/01/29 10:51:20;;;;;;;11.73;2.83;;;;;;;;;;4941311;28;20035;-82
2022/01/29 10:53:46;;;;;;;9.70;1.70;;;;;;;;;;4966627;28;20071;-82
2022/01/29 10:56:13;;;;;;;8.95;1.70;;;;;;;;;;4943004;28;20151;-82
2022/01/29 10:58:40;;;;;;;11.85;3.13;;;;;;;;;;4944506;28;20041;-82
2022/01/29 11:01:17;;;;;;;4.47;1.45;;;;;;;;;;4949759;28;20521;-82
2022/01/29 11:03:43;;;;;;;6.95;1.50;;;;;;;;;;4944817;28;20482;-83
2022/01/29 11:06:11;;;;;;;7.70;1.35;;;;;;;;;;4945264;28;20726;-82
2022/01/29 11:08:39;;;;;;;9.70;2.25;;;;;;;;;;4963326;28;20039;-82
2022/01/29 11:11:05;;;;;;;9.52;2.90;;;;;;;;;;4964178;28;20027;-82
2022/01/29 11:13:32;;;;;;;8.25;3.05;;;;;;;;;;4945572;28;20063;-82
2022/01/29 11:15:58;;;;;;;7.00;1.88;;;;;;;;;;4958459;28;20499;-83
2022/01/29 11:18:27;;;;;;;5.55;1.23;;;;;;;;;;4942739;28;20058;-82
2022/01/29 11:20:54;;;;;;;5.85;1.65;;;;;;;;;;4943585;28;20027;-82
2022/01/29 11:23:21;;;;;;;10.60;1.63;;;;;;;;;;4964945;28;20031;-81
2022/01/29 11:25:48;;;;;;;4.53;1.48;;;;;;;;;;4941711;28;20025;-83
2022/01/29 11:28:15;;;;;;;8.18;1.77;;;;;;;;;;4977814;28;20030;-83
2022/01/29 11:30:43;;;;;;;5.22;1.75;;;;;;;;;;4945924;28;20045;-82
2022/01/29 11:33:09;;;;;;;5.95;1.95;;;;;;;;;;4979325;28;20117;-82
2022/01/29 11:35:50;;;;;;;17.33;2.53;;;;;;;;;;4943201;28;20031;-82
2022/01/29 11:38:27;;;;;;;1.60;0.93;;;;;;;;;;4943467;28;20045;-82
2022/01/29 11:40:58;;;;;;;7.40;1.73;;;;;;;;;;4946212;28;20394;-82
2022/01/29 11:43:25;;;;;;;6.47;1.83;;;;;;;;;;4961859;28;20512;-82
2022/01/29 11:45:55;;;;;;;17.73;2.15;;;;;;;;;;4947701;28;20034;-81
2022/01/29 11:48:31;;;;;;;10.15;1.90;;;;;;;;;;4959368;28;20546;-82
2022/01/29 11:50:57;;;;;;;6.03;1.33;;;;;;;;;;4965873;28;20069;-82
2022/01/29 11:53:24;;;;;;;3.67;1.80;;;;;;;;;;4942448;28;20038;-81
2022/01/29 11:55:57;;;;;;;5.45;1.52;;;;;;;;;;4962222;28;20032;-82
2022/01/29 11:58:27;;;;;;;7.13;3.00;;;;;;;;;;4943455;28;20034;-83
2022/01/29 12:00:56;;;;;;;7.82;1.60;;;;;;;;;;4948033;28;20029;-82
2022/01/29 12:03:45;;;;;;;5.15;1.85;;;;;;;;;;4949171;28;20490;-82
2022/01/29 12:06:25;;;;;;;6.50;1.80;;;;;;;;;;4978791;28;20663;-81
2022/01/29 12:09:07;;;;;;;4.95;1.75;;;;;;;;;;4966060;28;20022;-82
2022/01/29 12:11:35;;;;;;;8.48;1.92;;;;;;;;;;4943931;28;20207;-81
2022/01/29 12:14:13;;;;;;;5.15;1.75;;;;;;;;;;4948412;28;20034;-81
2022/01/29 12:16:50;;;;;;;16.35;2.00;;;;;;;;;;4962616;28;20390;-81
2022/01/29 12:19:34;;;;;;;1.73;1.33;;;;;;;;;;4965222;28;20162;-82
2022/01/29 12:22:00;;;;;;;11.48;1.33;;;;;;;;;;4967287;28;20042;-83
2022/01/29 12:24:26;;;;;;;4.32;1.48;;;;;;;;;;4945872;28;20034;-82
2022/01/29 12:26:53;;;;;;;4.18;1.45;;;;;;;;;;4951880;28;20132;-81
2022/01/29 12:29:22;;;;;;;10.88;1.92;;;;;;;;;;4946243;28;20621;-84
2022/01/29 12:31:52;;;;;;;6.72;1.92;;;;;;;;;;4964079;28;20041;-81
2022/01/29 12:34:20;;;;;;;10.50;2.42;;;;;;;;;;4948387;28;20026;-81
2022/01/29 12:36:46;;;;;;;6.30;0.93;;;;;;;;;;4951205;28;20059;-82
2022/01/29 12:39:20;;;;;;;4.65;1.13;;;;;;;;;;4947078;28;20496;-81
2022/01/29 12:42:00;;;;;;;10.20;1.73;;;;;;;;;;4946906;28;20055;-82
2022/01/29 12:44:27;;;;;;;7.25;1.70;;;;;;;;;;4951507;28;20039;-81
2022/01/29 12:46:53;;;;;;;8.05;1.67;;;;;;;;;;4947046;28;20105;-81
2022/01/29 12:49:19;;;;;;;3.72;1.73;;;;;;;;;;4945029;28;20051;-81
2022/01/29 12:52:00;;;;;;;7.70;2.15;;;;;;;;;;4948401;28;20037;-81
2022/01/29 12:54:29;;;;;;;18.65;1.23;;;;;;;;;;4953906;28;20494;-82
2022/01/29 12:56:56;;;;;;;8.90;1.23;;;;;;;;;;4960866;28;20020;-82
2022/01/29 12:59:23;;;;;;;5.75;1.33;;;;;;;;;;4952181;28;20087;-82
2022/01/29 13:01:49;;;;;;;11.05;1.20;;;;;;;;;;4964996;28;20030;-82
2022/01/29 13:04:20;;;;;;;13.85;2.00;;;;;;;;;;4964011;28;20034;-82
2022/01/29 13:06:46;;;;;;;9.27;2.20;;;;;;;;;;4951038;28;20049;-81
2022/01/29 13:09:20;;;;;;;18.90;2.15;;;;;;;;;;4947636;28;20035;-81
2022/01/29 13:11:47;;;;;;;5.35;1.42;;;;;;;;;;4946689;28;20094;-80
2022/01/29 13:14:14;;;;;;;11.98;2.72;;;;;;;;;;4951623;28;20482;-81
2022/01/29 13:16:40;;;;;;;7.43;1.80;;;;;;;;;;4964291;28;20110;-81
2022/01/29 13:19:06;;;;;;;10.25;1.42;;;;;;;;;;4950757;28;20066;-82
2022/01/29 13:21:34;;;;;;;3.55;1.15;;;;;;;;;;4946044;28;20394;-83
2022/01/29 13:24:01;;;;;;;5.50;1.23;;;;;;;;;;4951453;28;20030;-82
2022/01/29 13:26:34;;;;;;;5.93;1.20;;;;;;;;;;4950863;28;20093;-82
2022/01/29 13:29:04;;;;;;;6.07;1.48;;;;;;;;;;4963445;28;20554;-81
2022/01/29 13:31:30;;;;;;;14.57;2.00;;;;;;;;;;4944831;28;20034;-82
2022/01/29 13:34:04;;;;;;;13.50;2.90;;;;;;;;;;4978012;28;20130;-81
2022/01/29 13:36:37;;;;;;;12.48;1.67;;;;;;;;;;4949505;28;20026;-82
2022/01/29 13:39:08;;;;;;;12.70;1.95;;;;;;;;;;4973171;28;20027;-82
2022/01/29 13:41:35;;;;;;;7.82;1.77;;;;;;;;;;4980657;28;20126;-82
2022/01/29 13:44:10;;;;;;;11.20;2.08;;;;;;;;;;4950612;28;20475;-82
2022/01/29 13:46:36;;;;;;;4.68;1.67;;;;;;;;;;4972761;28;20520;-82
2022/01/29 13:49:03;;;;;;;9.55;1.10;;;;;;;;;;4968646;28;20035;-82
2022/01/29 13:51:34;;;;;;;10.52;2.42;;;;;;;;;;4952255;28;20054;-82
2022/01/29 13:54:02;;;;;;;7.15;2.05;;;;;;;;;;4966806;28;20042;-82
2022/01/29 13:56:29;;;;;;;4.75;1.48;;;;;;;;;;4950413;28;20060;-82
2022/01/29 13:58:59;;;;;;;6.25;1.63;;;;;;;;;;4952170;28;20039;-81
2022/01/29 14:01:34;;;;;;;18.40;4.15;;;;;;;;;;4962124;28;20093;-82
2022/01/29 14:04:00;;;;;;;5.10;1.45;;;;;;;;;;4951617;28;20049;-83
2022/01/29 14:06:48;;;;;;;11.65;1.40;;;;;;;;;;4950028;28;20391;-81
2022/01/29 14:09:22;;;;;;;13.60;1.58;;;;;;;;;;4950449;28;20053;-81
2022/01/29 14:11:58;;;;;;;6.00;1.98;;;;;;;;;;4948818;28;20070;-82
2022/01/29 14:14:44;;;;;;;8.77;1.20;;;;;;;;;;4968398;28;20027;-82
2022/01/29 14:17:33;;;;;;;3.33;1.17;;;;;;;;;;4949447;28;20037;-81
2022/01/29 14:20:01;;;;;;;9.82;1.55;;;;;;;;;;4941426;28;20031;-82
2022/01/29 14:22:31;;;;;;;15.32;2.00;;;;;;;;;;4950260;28;20112;-83
2022/01/29 14:24:59;;;;;;;4.60;1.40;;;;;;;;;;4965784;28;20038;-82
2022/01/29 14:27:25;;;;;;;7.05;1.45;;;;;;;;;;4952058;28;20031;-82
2022/01/29 14:29:51;;;;;;;8.48;1.50;;;;;;;;;;4952059;28;20038;-82
2022/01/29 14:32:18;;;;;;;6.95;1.30;;;;;;;;;;4949984;28;20114;-82
2022/01/29 14:34:44;;;;;;;6.32;1.45;;;;;;;;;;4947247;28;20368;-83
2022/01/29 14:37:12;;;;;;;6.85;1.88;;;;;;;;;;4964059;28;20068;-82
2022/01/29 14:39:41;;;;;;;14.52;1.60;;;;;;;;;;4949100;28;20047;-82
2022/01/29 14:42:08;;;;;;;17.38;1.85;;;;;;;;;;4944086;28;20117;-82
2022/01/29 14:44:39;;;;;;;6.75;1.95;;;;;;;;;;4967623;28;20483;-82
2022/01/29 14:47:06;;;;;;;6.88;1.38;;;;;;;;;;4955666;28;20045;-82
2022/01/29 14:49:34;;;;;;;11.52;1.95;;;;;;;;;;4970651;28;20050;-82
2022/01/29 14:52:03;;;;;;;8.00;1.83;;;;;;;;;;4972408;28;20030;-82